CHS5 weather

Heliport Senneville
Montréal, Quebec, Canada

Public forecast

Using degrees Celsius for public forecast. Weather courtesy of forecast.io.

METAR (pilot weather report)

Closest report is Montreal / Pierre Elliott Trudeau International Airport, 9.4 nm (17.4 km) E. Retrieved 2019/05/24 10:00 UTC (35 minutes ago):

CYUL 241000Z 34007KT 15SM FEW008 OVC017 12/11 A2978 RMK SF1SC7 SLP087

TAF (pilot weather forecast)

Closest forecast is Montreal / Pierre Elliott Trudeau International Airport, 9.4 nm (17.4 km) E. Retrieved 2019/05/24 09:42 UTC (53 minutes ago):

TAF TAF CYUL 240839Z 2409/2506 35010KT 5SM -RA BR BKN006 OVC012 TEMPO 2409/2411 P6SM NSW FEW006 SCT012 BKN025 OVC100 FM241100 36010KT P6SM BKN025 TEMPO 2411/2414 P6SM -RA OVC020 BECMG 2414/2416 01010G20KT FM242100 05012KT P6SM BKN040 BECMG 2423/2501 07007KT FM250300 15005KT P6SM SCT040 RMK NXT FCST BY 241200Z